Time;durP1;ratioP1;P1;durP2;ratioP2;P2;SDS_P1;SDS_P2;PMS_P1;PMS_P2;Temp;Humidity;BMP_temperature;BMP_pressure;BME280_temperature;BME280_humidity;BME280_pressure;Samples;Min_cycle;Max_cycle;Signal;HPM_P1;HPM_P2
2022/11/01 00:01:06;;;;;;;96.53;26.03;;;;;;;10.82;100.00;100271.91;4181099;28;21761;-70
2022/11/01 00:03:33;;;;;;;96.40;27.57;;;;;;;10.73;100.00;100278.97;4186047;28;20236;-71
2022/11/01 00:05:59;;;;;;;117.77;28.60;;;;;;;10.71;100.00;100281.75;4227175;28;21755;-73
2022/11/01 00:08:26;;;;;;;112.23;27.13;;;;;;;10.76;100.00;100283.97;4219431;28;20314;-79
2022/11/01 00:11:03;;;;;;;76.80;24.40;;;;;;;10.88;100.00;100279.28;4207784;28;20320;-72
2022/11/01 00:13:30;;;;;;;116.70;28.43;;;;;;;10.83;100.00;100285.03;4213966;28;20237;-70
2022/11/01 00:15:57;;;;;;;102.87;25.00;;;;;;;10.96;100.00;100284.69;4196646;28;20255;-69
2022/11/01 00:18:25;;;;;;;78.23;24.10;;;;;;;10.93;100.00;100277.84;4193457;28;20249;-70
2022/11/01 00:20:52;;;;;;;68.53;23.90;;;;;;;10.87;100.00;100278.44;4186841;28;20246;-68
2022/11/01 00:23:18;;;;;;;77.60;22.90;;;;;;;10.92;100.00;100273.50;4193920;28;21756;-67
2022/11/01 00:25:45;;;;;;;71.50;23.33;;;;;;;10.90;100.00;100269.31;4173761;28;21472;-73
2022/11/01 00:28:12;;;;;;;72.07;24.10;;;;;;;10.89;100.00;100270.31;4221809;28;20341;-72
2022/11/01 00:30:39;;;;;;;71.03;23.20;;;;;;;10.90;100.00;100264.00;4201076;28;20327;-71
2022/11/01 00:33:06;;;;;;;76.87;22.87;;;;;;;10.85;100.00;100256.44;4183470;28;20320;-71
2022/11/01 00:35:35;;;;;;;64.27;22.73;;;;;;;10.89;100.00;100252.50;4186451;28;23802;-70
2022/11/01 00:38:03;;;;;;;77.17;23.30;;;;;;;10.96;100.00;100258.06;4207915;28;21553;-73
2022/11/01 00:40:30;;;;;;;73.40;23.97;;;;;;;10.95;100.00;100259.88;4196419;28;20236;-71
2022/11/01 00:42:56;;;;;;;89.03;26.17;;;;;;;10.89;100.00;100263.16;4177224;28;20399;-70
2022/11/01 00:45:23;;;;;;;106.57;25.17;;;;;;;10.87;100.00;100253.66;4170490;28;20239;-70
2022/11/01 00:47:50;;;;;;;89.13;27.70;;;;;;;10.98;100.00;100250.78;4173048;28;20299;-71
2022/11/01 00:50:16;;;;;;;99.00;27.50;;;;;;;10.92;100.00;100256.69;4171784;28;20238;-74
2022/11/01 00:52:43;;;;;;;74.63;24.90;;;;;;;10.92;100.00;100246.03;4178363;28;20297;-69
2022/11/01 00:55:09;;;;;;;90.27;27.30;;;;;;;10.91;100.00;100245.22;4171389;28;20241;-69
2022/11/01 00:57:36;;;;;;;92.23;28.30;;;;;;;10.93;100.00;100243.25;4175582;28;21313;-70
2022/11/01 01:00:03;;;;;;;85.50;26.47;;;;;;;10.88;100.00;100250.00;4165194;28;20359;-69
2022/11/01 01:02:30;;;;;;;77.97;24.73;;;;;;;10.90;100.00;100243.53;4174656;28;20234;-69
2022/11/01 01:04:57;;;;;;;72.80;24.77;;;;;;;10.87;100.00;100248.34;4161419;28;20367;-72
2022/11/01 01:07:23;;;;;;;64.30;22.00;;;;;;;10.94;100.00;100230.75;4167118;28;20258;-73
2022/11/01 01:09:50;;;;;;;70.13;22.23;;;;;;;10.88;100.00;100229.53;4166578;28;20268;-73
2022/11/01 01:12:16;;;;;;;63.43;22.40;;;;;;;10.98;100.00;100234.78;4167710;28;21793;-72
2022/11/01 01:14:43;;;;;;;62.17;20.33;;;;;;;11.05;100.00;100238.53;4169878;28;20266;-71
2022/11/01 01:17:09;;;;;;;71.47;21.53;;;;;;;10.99;100.00;100242.59;4177233;28;20241;-71
2022/11/01 01:19:36;;;;;;;61.87;23.37;;;;;;;11.05;100.00;100241.19;4188823;28;20241;-71
2022/11/01 01:22:03;;;;;;;64.30;21.73;;;;;;;11.06;100.00;100231.38;4183293;28;23256;-69
2022/11/01 01:24:30;;;;;;;65.43;21.47;;;;;;;10.99;100.00;100231.97;4158545;28;20337;-74
2022/11/01 01:26:57;;;;;;;75.27;21.17;;;;;;;10.96;100.00;100231.44;4174362;28;20233;-69
2022/11/01 01:29:23;;;;;;;69.43;21.87;;;;;;;10.88;100.00;100228.69;4175123;28;20233;-68
2022/11/01 01:31:51;;;;;;;65.53;21.37;;;;;;;10.95;100.00;100224.44;4164583;28;20286;-74
2022/11/01 01:34:17;;;;;;;68.97;21.90;;;;;;;10.91;100.00;100225.72;4174254;28;21075;-68
2022/11/01 01:36:45;;;;;;;76.10;21.57;;;;;;;10.96;100.00;100223.47;4177827;28;20478;-71
2022/11/01 01:39:12;;;;;;;65.23;22.13;;;;;;;10.92;100.00;100225.56;4161316;28;20294;-69
2022/11/01 01:41:56;;;;;;;76.63;23.50;;;;;;;10.95;100.00;100214.59;4168690;28;21116;-70
2022/11/01 01:44:51;;;;;;;63.67;21.30;;;;;;;11.03;100.00;100218.34;4168092;28;21234;-76
2022/11/01 01:47:25;;;;;;;86.43;22.23;;;;;;;10.99;100.00;100215.16;4181070;28;20246;-72
2022/11/01 01:50:22;;;;;;;64.53;20.53;;;;;;;11.06;100.00;100213.56;4171946;28;22025;-70
2022/11/01 01:52:58;;;;;;;73.30;22.27;;;;;;;10.96;100.00;100207.47;4176665;28;20236;-71
2022/11/01 01:55:29;;;;;;;54.73;20.57;;;;;;;10.97;100.00;100209.97;4170298;28;21444;-74
2022/11/01 01:57:56;;;;;;;60.33;21.27;;;;;;;10.97;100.00;100211.81;4172358;28;20551;-70
2022/11/01 02:00:25;;;;;;;54.90;20.30;;;;;;;10.99;100.00;100213.31;4171251;28;23579;-73
2022/11/01 02:02:51;;;;;;;74.10;22.60;;;;;;;10.95;100.00;100213.78;4169809;28;20280;-68
2022/11/01 02:05:25;;;;;;;71.17;22.03;;;;;;;10.99;100.00;100202.66;4164638;28;20229;-67
2022/11/01 02:07:52;;;;;;;71.57;22.10;;;;;;;10.97;100.00;100212.63;4176439;28;21120;-70
2022/11/01 02:10:19;;;;;;;60.77;21.30;;;;;;;10.96;100.00;100210.97;4188419;28;20412;-71
2022/11/01 02:12:47;;;;;;;62.17;21.30;;;;;;;11.12;100.00;100215.59;4183518;28;20233;-69
2022/11/01 02:15:15;;;;;;;60.93;21.37;;;;;;;11.08;100.00;100214.25;4172431;28;20238;-70
2022/11/01 02:17:52;;;;;;;76.80;20.90;;;;;;;11.04;100.00;100206.72;4182412;28;20244;-69
2022/11/01 02:20:45;;;;;;;74.77;21.87;;;;;;;10.99;100.00;100200.00;4155916;28;20252;-72
2022/11/01 02:23:17;;;;;;;64.20;19.57;;;;;;;11.05;100.00;100201.25;4182040;28;20236;-69
2022/11/01 02:26:23;;;;;;;63.90;20.57;;;;;;;10.96;100.00;100195.00;4187876;28;21752;-72
2022/11/01 02:29:12;;;;;;;57.53;20.60;;;;;;;10.93;100.00;100200.63;4168125;28;20233;-71
2022/11/01 02:32:08;;;;;;;69.80;20.83;;;;;;;11.03;100.00;100195.22;4170877;28;21509;-69
2022/11/01 02:34:56;;;;;;;66.77;22.23;;;;;;;10.99;100.00;100189.38;4192295;28;22407;-71
2022/11/01 02:37:43;;;;;;;81.43;23.10;;;;;;;10.95;100.00;100181.84;4167844;28;20266;-69
2022/11/01 02:40:25;;;;;;;62.53;20.57;;;;;;;11.05;100.00;100173.75;4171342;28;22644;-72
2022/11/01 02:42:56;;;;;;;67.47;21.67;;;;;;;10.97;100.00;100169.22;4167719;28;22115;-72
2022/11/01 02:45:30;;;;;;;74.80;22.23;;;;;;;10.87;100.00;100163.16;4161876;28;20248;-70
2022/11/01 02:47:59;;;;;;;72.87;22.60;;;;;;;10.97;100.00;100158.56;4173433;28;22178;-69
2022/11/01 02:50:26;;;;;;;73.83;23.83;;;;;;;10.96;100.00;100157.72;4159872;28;21809;-75
2022/11/01 02:52:54;;;;;;;74.07;23.40;;;;;;;10.97;100.00;100156.72;4159767;28;20243;-68
2022/11/01 02:55:28;;;;;;;79.33;23.83;;;;;;;10.87;100.00;100145.34;4164743;28;21045;-67
2022/11/01 02:58:02;;;;;;;79.33;25.33;;;;;;;10.87;100.00;100150.66;4169787;28;20234;-68
2022/11/01 03:00:34;;;;;;;94.53;22.77;;;;;;;10.88;100.00;100144.34;4166552;28;22029;-72
2022/11/01 03:03:16;;;;;;;77.63;23.17;;;;;;;10.88;100.00;100149.66;4172835;28;21394;-71
2022/11/01 03:05:53;;;;;;;66.93;20.20;;;;;;;10.92;100.00;100148.38;4172332;28;20256;-70
2022/11/01 03:08:22;;;;;;;74.13;21.50;;;;;;;10.80;100.00;100141.63;4168740;28;20233;-71
2022/11/01 03:11:10;;;;;;;76.70;20.77;;;;;;;10.71;100.00;100137.22;4184238;28;22799;-73
2022/11/01 03:14:04;;;;;;;67.67;21.03;;;;;;;10.69;100.00;100136.53;4184944;28;20297;-72
2022/11/01 03:16:34;;;;;;;93.70;20.83;;;;;;;10.72;100.00;100144.19;4178515;28;20238;-68
2022/11/01 03:19:16;;;;;;;57.40;19.13;;;;;;;10.69;100.00;100139.19;4190581;28;20240;-69
2022/11/01 03:21:51;;;;;;;67.93;22.50;;;;;;;10.57;100.00;100147.41;4175207;28;20238;-71
2022/11/01 03:24:26;;;;;;;61.57;19.60;;;;;;;10.67;100.00;100141.16;4188408;28;20257;-68
2022/11/01 03:26:59;;;;;;;83.90;20.67;;;;;;;10.49;100.00;100150.00;4182741;28;20249;-69
2022/11/01 03:29:27;;;;;;;63.30;19.00;;;;;;;10.56;100.00;100145.75;4209695;28;23179;-70
2022/11/01 03:31:55;;;;;;;73.13;19.30;;;;;;;10.66;100.00;100155.47;4197748;28;20293;-71
2022/11/01 03:34:23;;;;;;;114.60;21.93;;;;;;;10.55;100.00;100157.34;4177801;28;20295;-69
2022/11/01 03:36:54;;;;;;;101.47;22.73;;;;;;;10.56;100.00;100155.56;4170907;28;20239;-69
2022/11/01 03:39:27;;;;;;;91.40;22.20;;;;;;;10.48;100.00;100150.13;4193117;28;21520;-69
2022/11/01 03:41:56;;;;;;;71.50;20.07;;;;;;;10.46;100.00;100160.91;4158618;28;20288;-69
2022/11/01 03:44:25;;;;;;;98.07;21.77;;;;;;;10.40;100.00;100155.41;4169222;28;20223;-71
2022/11/01 03:46:51;;;;;;;76.50;20.10;;;;;;;10.41;100.00;100155.22;4175251;28;23543;-71
2022/11/01 03:49:18;;;;;;;69.17;19.23;;;;;;;10.39;100.00;100148.38;4183067;28;20321;-71
2022/11/01 03:51:45;;;;;;;106.60;20.23;;;;;;;10.35;100.00;100147.88;4173570;28;20241;-74
2022/11/01 03:54:11;;;;;;;79.97;19.13;;;;;;;10.25;100.00;100157.69;4170918;28;20375;-70
2022/11/01 03:56:39;;;;;;;108.93;20.20;;;;;;;10.24;100.00;100156.03;4197085;28;21217;-70
2022/11/01 03:59:07;;;;;;;64.57;18.67;;;;;;;10.32;100.00;100153.47;4176927;28;25784;-70
2022/11/01 04:01:34;;;;;;;64.83;19.83;;;;;;;10.27;100.00;100148.56;4195513;28;20366;-73
2022/11/01 04:04:01;;;;;;;71.47;19.63;;;;;;;10.16;100.00;100143.47;4179470;28;20830;-67
2022/11/01 04:06:28;;;;;;;100.37;19.67;;;;;;;10.05;100.00;100139.19;4174934;28;21417;-69
2022/11/01 04:08:54;;;;;;;87.30;21.33;;;;;;;9.99;100.00;100131.81;4172828;28;20241;-68
2022/11/01 04:11:21;;;;;;;85.87;21.27;;;;;;;9.98;100.00;100119.50;4178422;28;20285;-69
2022/11/01 04:13:48;;;;;;;94.83;19.10;;;;;;;9.90;100.00;100116.75;4166604;28;20250;-70
2022/11/01 04:21:45;;;;;;;95.33;19.70;;;;;;;9.61;100.00;100114.25;4196332;28;20239;-72
2022/11/01 04:24:19;;;;;;;70.03;20.47;;;;;;;9.59;100.00;100105.59;4185689;28;20238;-68
2022/11/01 04:26:46;;;;;;;122.80;21.70;;;;;;;9.62;100.00;100113.25;4172920;28;23229;-68
2022/11/01 04:29:13;;;;;;;49.07;19.53;;;;;;;9.72;100.00;100112.22;4167771;28;20245;-69
2022/11/01 04:31:39;;;;;;;83.13;21.30;;;;;;;9.72;100.00;100108.75;4166526;28;20237;-70
2022/11/01 04:34:06;;;;;;;77.37;21.60;;;;;;;9.71;100.00;100107.88;4167706;28;20235;-73
2022/11/01 04:36:33;;;;;;;64.10;19.77;;;;;;;9.76;100.00;100109.28;4185436;28;20267;-70
2022/11/01 04:38:59;;;;;;;88.03;20.53;;;;;;;9.79;100.00;100106.34;4164307;28;22238;-69
2022/11/01 04:41:27;;;;;;;84.90;21.63;;;;;;;9.71;100.00;100102.56;4167790;28;21728;-71
2022/11/01 04:43:56;;;;;;;79.00;21.23;;;;;;;9.73;100.00;100097.94;4162530;28;22871;-69
2022/11/01 04:46:22;;;;;;;93.10;21.70;;;;;;;9.77;100.00;100098.50;4168732;28;20543;-70
2022/11/01 04:48:49;;;;;;;121.80;22.90;;;;;;;9.79;100.00;100103.69;4170081;28;20250;-70
2022/11/01 04:51:15;;;;;;;72.20;20.87;;;;;;;9.79;100.00;100101.03;4175613;28;20826;-67
2022/11/01 04:53:42;;;;;;;142.13;24.03;;;;;;;9.69;100.00;100101.91;4173804;28;20241;-68
2022/11/01 04:56:10;;;;;;;77.43;21.43;;;;;;;9.74;100.00;100096.16;4187317;28;20924;-73
2022/11/01 04:58:37;;;;;;;71.43;22.53;;;;;;;9.85;100.00;100095.09;4174424;28;20308;-71
2022/11/01 05:01:11;;;;;;;77.27;22.13;;;;;;;9.80;100.00;100097.38;4188064;28;23151;-73
2022/11/01 05:03:37;;;;;;;80.70;21.63;;;;;;;9.75;100.00;100091.66;4185134;28;20262;-69
2022/11/01 05:06:04;;;;;;;89.93;24.90;;;;;;;9.73;100.00;100095.28;4180786;28;20238;-73
2022/11/01 05:08:31;;;;;;;98.03;21.63;;;;;;;9.77;100.00;100087.03;4173858;28;20242;-72
2022/11/01 05:10:58;;;;;;;64.93;20.10;;;;;;;9.73;100.00;100095.28;4168136;28;20239;-70
2022/11/01 05:13:27;;;;;;;107.43;22.57;;;;;;;9.80;100.00;100102.69;4168728;28;21325;-72
2022/11/01 05:15:54;;;;;;;77.80;21.53;;;;;;;9.66;100.00;100093.38;4186398;28;21193;-77
2022/11/01 05:18:43;;;;;;;100.33;21.30;;;;;;;9.63;100.00;100089.19;4188714;28;20269;-70
2022/11/01 05:21:11;;;;;;;114.60;22.33;;;;;;;9.71;100.00;100086.63;4163559;28;22686;-67
2022/11/01 05:23:37;;;;;;;50.47;20.87;;;;;;;9.71;100.00;100083.97;4160486;28;20317;-67
2022/11/01 05:26:04;;;;;;;93.20;22.83;;;;;;;9.67;100.00;100085.28;4164357;28;20227;-68
2022/11/01 05:28:30;;;;;;;126.87;23.17;;;;;;;9.69;100.00;100083.31;4167382;28;20241;-71
2022/11/01 05:30:57;;;;;;;116.53;21.73;;;;;;;9.65;100.00;100081.94;4169576;28;23590;-74
2022/11/01 05:33:24;;;;;;;68.93;20.10;;;;;;;9.66;100.00;100083.59;4178195;28;20246;-70
2022/11/01 05:35:51;;;;;;;114.07;22.37;;;;;;;9.58;100.00;100086.16;4170672;28;20239;-71
2022/11/01 05:38:17;;;;;;;108.37;21.57;;;;;;;9.57;100.00;100084.47;4188136;28;22488;-72
2022/11/01 05:40:44;;;;;;;97.23;20.40;;;;;;;9.57;100.00;100081.81;4174562;28;20495;-68
2022/11/01 05:43:10;;;;;;;92.90;22.07;;;;;;;9.50;100.00;100083.38;4195559;28;20230;-69
2022/11/01 05:45:37;;;;;;;77.00;21.73;;;;;;;9.58;100.00;100080.84;4187767;28;21851;-68
2022/11/01 05:48:03;;;;;;;60.17;22.20;;;;;;;9.58;100.00;100085.31;4173743;28;20354;-71
2022/11/01 05:50:30;;;;;;;84.30;23.00;;;;;;;9.60;100.00;100076.22;4183343;28;20305;-72
2022/11/01 05:53:07;;;;;;;73.90;23.50;;;;;;;9.61;100.00;100083.19;4185749;28;20237;-68
2022/11/01 05:55:34;;;;;;;77.87;23.03;;;;;;;9.79;100.00;100088.56;4175451;28;21097;-71
2022/11/01 05:58:00;;;;;;;81.57;22.87;;;;;;;9.75;100.00;100086.34;4169857;28;20440;-70
2022/11/01 06:00:27;;;;;;;114.87;24.60;;;;;;;9.58;100.00;100083.50;4173273;28;20237;-71
2022/11/01 06:02:56;;;;;;;103.17;22.23;;;;;;;9.67;100.00;100087.09;4172485;28;21039;-70
2022/11/01 06:05:23;;;;;;;139.07;25.40;;;;;;;9.59;100.00;100082.50;4175092;28;20404;-71
2022/11/01 06:07:50;;;;;;;82.33;21.60;;;;;;;9.78;100.00;100084.22;4172800;28;25033;-71
2022/11/01 06:10:17;;;;;;;160.30;26.17;;;;;;;9.68;100.00;100094.06;4181259;28;20255;-73
2022/11/01 06:12:43;;;;;;;106.30;24.17;;;;;;;9.68;100.00;100086.94;4171740;28;20289;-73
2022/11/01 06:15:10;;;;;;;125.67;21.43;;;;;;;9.60;100.00;100089.50;4174323;28;22829;-77
2022/11/01 06:17:37;;;;;;;59.50;20.23;;;;;;;9.67;100.00;100090.59;4181879;28;20289;-71
2022/11/01 06:20:04;;;;;;;118.63;23.47;;;;;;;9.69;100.00;100093.94;4254665;28;21182;-71
2022/11/01 06:22:34;;;;;;;152.60;23.13;;;;;;;9.70;100.00;100090.28;4242293;28;20435;-72
2022/11/01 06:25:00;;;;;;;107.93;21.43;;;;;;;9.67;100.00;100084.44;4230694;28;21133;-70
2022/11/01 06:27:27;;;;;;;77.50;21.50;;;;;;;9.73;100.00;100084.66;4288148;28;20269;-77
2022/11/01 06:29:54;;;;;;;74.93;22.00;;;;;;;9.75;100.00;100087.19;4240401;28;20243;-74
2022/11/01 06:32:21;;;;;;;82.77;22.60;;;;;;;9.80;100.00;100079.59;4264155;28;20962;-70
2022/11/01 06:34:48;;;;;;;92.00;24.17;;;;;;;9.82;100.00;100092.75;4261324;28;20385;-69
2022/11/01 06:37:15;;;;;;;87.10;23.10;;;;;;;9.90;100.00;100091.03;4205059;28;21132;-73
2022/11/01 06:39:41;;;;;;;85.27;23.30;;;;;;;9.96;100.00;100089.59;4242699;28;20373;-71
2022/11/01 06:42:08;;;;;;;91.13;25.50;;;;;;;9.93;100.00;100096.03;4227952;28;21179;-73
2022/11/01 06:44:35;;;;;;;88.60;25.67;;;;;;;10.04;100.00;100087.00;4219774;28;20924;-72
2022/11/01 06:47:02;;;;;;;100.47;26.50;;;;;;;10.05;100.00;100083.38;4226749;28;22849;-72
2022/11/01 06:49:29;;;;;;;77.57;29.00;;;;;;;10.05;100.00;100083.38;4223419;28;20245;-69
2022/11/01 06:51:56;;;;;;;88.03;26.87;;;;;;;10.06;100.00;100082.38;4236245;28;22064;-71
2022/11/01 06:54:23;;;;;;;102.23;27.37;;;;;;;10.18;100.00;100084.81;4237959;28;20237;-75
2022/11/01 06:56:50;;;;;;;85.93;28.27;;;;;;;10.15;100.00;100073.50;4254823;28;20823;-73
2022/11/01 06:59:16;;;;;;;80.57;28.27;;;;;;;10.23;100.00;100080.72;4227251;28;20306;-70
2022/11/01 07:01:43;;;;;;;93.80;28.00;;;;;;;10.30;100.00;100086.28;4187060;28;20920;-69
2022/11/01 07:04:10;;;;;;;92.33;27.77;;;;;;;10.35;100.00;100084.84;4203175;28;20437;-68
2022/11/01 07:06:41;;;;;;;121.40;27.33;;;;;;;10.28;100.00;100086.47;4220437;28;20596;-71
2022/11/01 07:09:09;;;;;;;76.43;27.57;;;;;;;10.33;100.00;100088.66;4215943;28;21281;-69
2022/11/01 07:11:35;;;;;;;80.23;27.73;;;;;;;10.39;100.00;100096.00;4203934;28;21810;-68
2022/11/01 07:14:03;;;;;;;90.97;27.50;;;;;;;10.33;100.00;100096.63;4221376;28;20327;-69
2022/11/01 07:16:30;;;;;;;92.50;27.50;;;;;;;10.44;100.00;100098.22;4206364;28;25061;-69
2022/11/01 07:18:57;;;;;;;99.10;29.83;;;;;;;10.50;100.00;100098.44;4207575;28;20478;-70
2022/11/01 07:21:23;;;;;;;69.00;26.77;;;;;;;10.61;100.00;100099.22;4183391;28;20241;-71
2022/11/01 07:23:52;;;;;;;86.47;29.67;;;;;;;10.60;100.00;100102.84;4215511;28;21119;-71
2022/11/01 07:26:19;;;;;;;87.93;28.53;;;;;;;10.69;100.00;100097.44;4189230;28;20225;-70
2022/11/01 07:28:46;;;;;;;90.07;29.37;;;;;;;10.71;100.00;100094.63;4185493;28;20293;-71
2022/11/01 07:31:12;;;;;;;71.03;27.43;;;;;;;10.77;100.00;100094.03;4169535;28;20270;-71
2022/11/01 07:33:39;;;;;;;71.53;27.63;;;;;;;10.86;100.00;100097.56;4193853;28;20238;-72
2022/11/01 07:36:06;;;;;;;80.17;28.23;;;;;;;10.84;100.00;100100.41;4188003;28;20249;-70
2022/11/01 07:38:32;;;;;;;70.57;28.70;;;;;;;10.93;100.00;100102.13;4197767;28;20792;-68
2022/11/01 07:40:59;;;;;;;69.73;26.60;;;;;;;11.06;100.00;100098.22;4168117;28;21698;-71
2022/11/01 07:43:26;;;;;;;68.20;27.70;;;;;;;11.12;100.00;100097.56;4180986;28;20237;-67
2022/11/01 07:45:52;;;;;;;62.30;25.33;;;;;;;11.22;100.00;100097.50;4180559;28;20237;-70
2022/11/01 07:48:19;;;;;;;70.20;25.47;;;;;;;11.01;100.00;100098.69;4206380;28;20257;-66
2022/11/01 07:50:45;;;;;;;70.20;25.97;;;;;;;11.07;100.00;100097.22;4179816;28;20506;-70
2022/11/01 07:53:17;;;;;;;54.00;24.73;;;;;;;11.11;100.00;100101.25;4173547;28;20239;-70
2022/11/01 07:55:45;;;;;;;58.97;23.93;;;;;;;11.09;100.00;100098.72;4184875;28;21578;-70
2022/11/01 07:58:12;;;;;;;70.20;25.57;;;;;;;11.10;100.00;100094.25;4167974;28;20512;-71
2022/11/01 08:00:39;;;;;;;63.63;26.63;;;;;;;11.14;100.00;100095.59;4191813;28;20230;-70
2022/11/01 08:03:08;;;;;;;64.10;26.37;;;;;;;11.01;100.00;100090.69;4172734;28;20238;-69
2022/11/01 08:05:35;;;;;;;69.20;28.13;;;;;;;11.07;100.00;100091.88;4179829;28;22485;-70
2022/11/01 08:08:02;;;;;;;67.07;26.37;;;;;;;11.17;100.00;100100.63;4180188;28;20232;-70
2022/11/01 08:10:29;;;;;;;68.33;27.87;;;;;;;11.15;100.00;100099.94;4179751;28;20502;-73
2022/11/01 08:13:06;;;;;;;66.97;27.23;;;;;;;11.26;100.00;100098.81;4188796;28;25555;-68
2022/11/01 08:15:33;;;;;;;73.20;27.77;;;;;;;11.20;100.00;100108.28;4182538;28;20242;-69
2022/11/01 08:18:00;;;;;;;68.27;26.27;;;;;;;11.27;100.00;100106.66;4189572;28;21803;-68
2022/11/01 08:20:27;;;;;;;66.97;27.93;;;;;;;11.26;100.00;100115.66;4177876;28;21208;-67
2022/11/01 08:22:54;;;;;;;60.20;27.80;;;;;;;11.29;100.00;100104.69;4185332;28;20459;-69
2022/11/01 08:25:20;;;;;;;65.07;27.53;;;;;;;11.31;100.00;100097.38;4187671;28;20226;-68
2022/11/01 08:27:47;;;;;;;63.70;26.00;;;;;;;11.41;100.00;100097.25;4180698;28;20598;-63
2022/11/01 08:30:14;;;;;;;67.50;27.33;;;;;;;11.35;100.00;100092.56;4192760;28;27240;-67
2022/11/01 08:32:41;;;;;;;63.73;28.13;;;;;;;11.44;100.00;100090.78;4207296;28;20228;-73
2022/11/01 08:35:08;;;;;;;60.97;28.27;;;;;;;11.55;100.00;100101.16;4201023;28;20407;-68
2022/11/01 08:37:34;;;;;;;63.57;28.07;;;;;;;11.67;100.00;100099.88;4218691;28;20803;-68
2022/11/01 08:40:02;;;;;;;59.57;28.80;;;;;;;11.73;100.00;100093.91;4169526;28;20268;-68
2022/11/01 08:42:28;;;;;;;59.73;26.63;;;;;;;11.87;100.00;100094.28;4190132;28;20646;-70
2022/11/01 08:44:55;;;;;;;63.40;27.43;;;;;;;11.85;100.00;100091.78;4197148;28;22591;-65
2022/11/01 08:47:22;;;;;;;54.13;26.83;;;;;;;11.84;100.00;100087.44;4199596;28;20313;-69
2022/11/01 08:49:48;;;;;;;57.57;27.30;;;;;;;11.76;100.00;100084.75;4247352;28;20244;-67
2022/11/01 08:52:15;;;;;;;56.70;25.47;;;;;;;11.82;100.00;100086.75;4182874;28;21205;-68
2022/11/01 08:54:41;;;;;;;60.83;27.57;;;;;;;11.87;100.00;100081.84;4248263;28;20233;-70
2022/11/01 08:57:08;;;;;;;54.53;26.37;;;;;;;11.76;100.00;100076.75;4198454;28;21842;-69
2022/11/01 08:59:34;;;;;;;61.70;28.20;;;;;;;11.80;100.00;100073.59;4175467;28;20254;-69
2022/11/01 09:02:01;;;;;;;59.60;28.50;;;;;;;11.72;100.00;100075.41;4218085;28;20242;-68
2022/11/01 09:04:27;;;;;;;59.87;27.90;;;;;;;11.82;100.00;100074.28;4191196;28;20265;-70
2022/11/01 09:06:54;;;;;;;60.17;27.90;;;;;;;11.83;100.00;100075.13;4181622;28;21189;-69
2022/11/01 09:09:21;;;;;;;58.00;27.70;;;;;;;11.87;100.00;100073.84;4165057;28;20307;-71
2022/11/01 09:11:47;;;;;;;56.60;27.10;;;;;;;11.95;100.00;100067.69;4174680;28;20514;-67
2022/11/01 09:14:14;;;;;;;56.57;26.53;;;;;;;11.89;100.00;100074.47;4168651;28;20234;-67
2022/11/01 09:16:40;;;;;;;57.43;27.07;;;;;;;11.75;100.00;100072.41;4178655;28;20237;-69
2022/11/01 09:19:07;;;;;;;55.30;26.87;;;;;;;11.80;100.00;100070.94;4175558;28;20284;-67
2022/11/01 09:21:33;;;;;;;54.87;27.10;;;;;;;11.83;100.00;100075.13;4180338;28;20310;-69
2022/11/01 09:24:00;;;;;;;56.97;28.00;;;;;;;11.92;100.00;100073.34;4166481;28;21259;-67
2022/11/01 09:26:27;;;;;;;57.77;26.77;;;;;;;12.04;100.00;100072.03;4171863;28;26714;-67
2022/11/01 09:28:57;;;;;;;56.93;27.17;;;;;;;12.09;100.00;100063.53;4188191;28;21495;-70
2022/11/01 09:31:23;;;;;;;59.00;26.53;;;;;;;12.10;100.00;100059.88;4179386;28;23889;-67
2022/11/01 09:33:56;;;;;;;58.60;27.53;;;;;;;12.19;100.00;100058.88;4191393;28;20240;-69
2022/11/01 09:36:23;;;;;;;50.07;24.77;;;;;;;12.25;100.00;100056.41;4214774;28;20305;-69
2022/11/01 09:38:51;;;;;;;48.23;24.73;;;;;;;12.46;100.00;100047.91;4209821;28;20375;-69
2022/11/01 09:41:28;;;;;;;48.87;25.50;;;;;;;12.38;100.00;100055.88;4221800;28;20307;-67
2022/11/01 09:44:00;;;;;;;48.47;25.57;;;;;;;12.54;100.00;100046.22;4213656;28;21837;-68
2022/11/01 09:46:30;;;;;;;46.40;25.80;;;;;;;12.45;100.00;100040.06;4261567;28;20237;-70
2022/11/01 09:49:00;;;;;;;50.30;26.73;;;;;;;12.52;100.00;100043.72;4195912;28;20374;-72
2022/11/01 09:51:28;;;;;;;54.80;27.17;;;;;;;12.43;100.00;100047.38;4178317;28;22010;-67
2022/11/01 09:53:57;;;;;;;53.03;26.77;;;;;;;12.62;100.00;100041.72;4174986;28;21162;-70
2022/11/01 09:56:31;;;;;;;48.03;25.13;;;;;;;12.70;100.00;100048.06;4184862;28;20314;-68
2022/11/01 09:59:02;;;;;;;49.37;24.93;;;;;;;12.74;100.00;100046.72;4214557;28;20556;-69
2022/11/01 10:01:39;;;;;;;47.67;25.13;;;;;;;12.75;100.00;100051.88;4196995;28;21469;-67
2022/11/01 10:04:21;;;;;;;44.73;23.87;;;;;;;12.62;100.00;100049.75;4189331;28;22391;-69
2022/11/01 10:06:54;;;;;;;49.53;25.43;;;;;;;12.37;100.00;100038.22;4194516;28;20243;-68
2022/11/01 10:09:46;;;;;;;51.97;25.70;;;;;;;12.41;100.00;100039.56;4188319;28;20629;-68
2022/11/01 10:12:35;;;;;;;50.93;26.50;;;;;;;12.34;100.00;100043.91;4171106;28;23235;-69
2022/11/01 10:15:10;;;;;;;53.97;26.57;;;;;;;12.24;100.00;100041.41;4168708;28;20253;-67
2022/11/01 10:17:49;;;;;;;55.83;27.17;;;;;;;12.27;100.00;100044.72;4180630;28;20233;-68
2022/11/01 10:20:25;;;;;;;50.07;26.23;;;;;;;12.21;100.00;100049.72;4168647;28;20239;-68
2022/11/01 10:22:52;;;;;;;54.67;28.20;;;;;;;11.93;100.00;100043.00;4161150;28;20293;-67
2022/11/01 10:25:21;;;;;;;57.07;28.33;;;;;;;11.94;100.00;100039.31;4156004;28;20249;-70
2022/11/01 10:28:08;;;;;;;51.47;27.23;;;;;;;12.02;100.00;100034.03;4171142;28;20316;-68
2022/11/01 10:30:49;;;;;;;53.50;27.47;;;;;;;12.10;100.00;100031.34;4179382;28;20233;-68
2022/11/01 10:33:28;;;;;;;58.10;27.67;;;;;;;12.02;100.00;100026.84;4196683;28;20241;-67
2022/11/01 10:36:03;;;;;;;60.73;27.77;;;;;;;12.05;100.00;100031.03;4192388;28;20229;-69
2022/11/01 10:38:35;;;;;;;60.07;27.43;;;;;;;11.94;100.00;100024.19;4207365;28;20533;-71
2022/11/01 10:41:52;;;;;;;60.03;26.77;;;;;;;11.90;100.00;100017.50;4188434;28;22574;-70
2022/11/01 10:44:32;;;;;;;60.23;28.80;;;;;;;11.84;100.00;100024.28;4182667;28;20233;-68
2022/11/01 10:47:05;;;;;;;65.60;29.17;;;;;;;11.83;100.00;100011.97;4177248;28;20237;-69
2022/11/01 10:49:38;;;;;;;60.30;29.23;;;;;;;11.89;100.00;100012.31;4186623;28;20371;-68
2022/11/01 10:52:31;;;;;;;60.13;28.83;;;;;;;11.95;100.00;100007.19;4169537;28;20341;-68
2022/11/01 10:54:58;;;;;;;67.43;30.80;;;;;;;11.82;100.00;100004.13;4180405;28;23306;-69
2022/11/01 10:57:33;;;;;;;63.10;30.03;;;;;;;11.71;100.00;99997.28;4193499;28;20234;-70
2022/11/01 11:00:04;;;;;;;76.97;28.77;;;;;;;11.64;100.00;99995.44;4161738;28;20329;-68
2022/11/01 11:02:37;;;;;;;82.97;29.63;;;;;;;11.42;100.00;99984.34;4181402;28;20254;-70
2022/11/01 11:05:04;;;;;;;67.40;29.63;;;;;;;11.41;100.00;99996.03;4172757;28;20235;-67
2022/11/01 11:07:31;;;;;;;65.07;30.23;;;;;;;11.45;100.00;99989.38;4165165;28;21255;-67
2022/11/01 11:10:00;;;;;;;68.17;30.37;;;;;;;11.44;100.00;99984.19;4166471;28;20235;-68
2022/11/01 11:12:33;;;;;;;66.73;30.13;;;;;;;11.53;100.00;99978.72;4184008;28;21603;-66
2022/11/01 11:15:09;;;;;;;69.37;31.43;;;;;;;11.56;100.00;99977.56;4176142;28;21320;-68
2022/11/01 11:17:44;;;;;;;66.43;30.00;;;;;;;11.63;100.00;99973.25;4176289;28;22254;-68
2022/11/01 11:20:11;;;;;;;68.27;29.20;;;;;;;11.74;100.00;99978.28;4178918;28;20270;-65